Time;durP1;ratioP1;P1;durP2;ratioP2;P2;SDS_P1;SDS_P2;PMS_P1;PMS_P2;Temp;Humidity;BMP_temperature;BMP_pressure;BME280_temperature;BME280_humidity;BME280_pressure;Samples;Min_cycle;Max_cycle;Signal;HPM_P1;HPM_P2
2024/02/19 00:01:01;;;;;;;1.80;1.10;;;12.00;99.90;;;;;;5043544;28;20229;-60
2024/02/19 00:03:28;;;;;;;0.97;0.87;;;12.00;99.90;;;;;;5042773;28;20299;-58
2024/02/19 00:05:55;;;;;;;0.70;0.60;;;12.10;99.90;;;;;;5040384;28;20317;-60
2024/02/19 00:08:21;;;;;;;1.73;0.80;;;12.20;99.90;;;;;;5040175;28;20313;-61
2024/02/19 00:10:48;;;;;;;1.33;1.00;;;12.20;99.90;;;;;;5043666;28;20288;-59
2024/02/19 00:13:16;;;;;;;1.10;0.93;;;12.00;99.90;;;;;;5043989;28;20209;-59
2024/02/19 00:15:43;;;;;;;1.50;0.90;;;11.90;99.90;;;;;;5040586;28;20222;-59
2024/02/19 00:18:10;;;;;;;1.10;0.93;;;11.90;99.90;;;;;;5040181;28;20236;-60
2024/02/19 00:20:37;;;;;;;1.00;0.80;;;11.80;99.90;;;;;;5041841;28;20210;-59
2024/02/19 00:23:03;;;;;;;1.03;0.93;;;11.80;99.90;;;;;;5043741;28;20275;-59
2024/02/19 00:25:30;;;;;;;1.00;0.90;;;11.90;99.90;;;;;;5042342;28;20225;-59
2024/02/19 00:27:56;;;;;;;4.97;1.10;;;12.00;99.90;;;;;;5040146;28;20297;-59
2024/02/19 00:30:24;;;;;;;0.93;0.90;;;12.10;99.90;;;;;;5039839;28;20289;-59
2024/02/19 00:32:51;;;;;;;1.93;1.20;;;12.20;99.90;;;;;;5043442;28;20206;-59
2024/02/19 00:35:20;;;;;;;1.30;1.10;;;12.20;99.90;;;;;;5043448;28;20205;-59
2024/02/19 00:37:47;;;;;;;1.00;0.90;;;12.20;99.90;;;;;;5031925;28;20209;-59
2024/02/19 00:40:14;;;;;;;1.20;1.00;;;12.20;99.90;;;;;;5039667;28;20722;-59
2024/02/19 00:42:41;;;;;;;0.70;0.67;;;12.20;99.90;;;;;;5042339;28;20218;-58
2024/02/19 00:45:09;;;;;;;1.10;1.00;;;12.20;99.90;;;;;;5043193;28;20240;-57
2024/02/19 00:47:37;;;;;;;0.90;0.83;;;12.30;99.90;;;;;;5041347;28;20292;-55
2024/02/19 00:50:04;;;;;;;1.43;0.70;;;12.20;99.90;;;;;;5039495;28;20211;-55
2024/02/19 00:52:31;;;;;;;0.50;0.50;;;12.20;99.90;;;;;;5041275;28;20672;-56
2024/02/19 00:54:57;;;;;;;0.97;0.43;;;12.20;99.90;;;;;;5043194;28;20209;-55
2024/02/19 00:57:24;;;;;;;0.67;0.50;;;12.00;99.90;;;;;;5042836;28;20240;-55
2024/02/19 00:59:51;;;;;;;0.43;0.40;;;12.10;99.90;;;;;;5039447;28;20252;-55
2024/02/19 01:02:18;;;;;;;0.43;0.33;;;12.10;99.90;;;;;;5042747;28;20221;-55
2024/02/19 01:04:46;;;;;;;1.60;0.30;;;12.10;99.90;;;;;;5046658;28;20684;-56
2024/02/19 01:07:16;;;;;;;0.57;0.40;;;12.10;99.90;;;;;;5046924;28;20647;-55
2024/02/19 01:09:42;;;;;;;0.57;0.30;;;12.20;99.90;;;;;;5044002;28;20710;-55
2024/02/19 01:12:09;;;;;;;0.30;0.23;;;12.20;99.90;;;;;;5043725;28;20198;-55
2024/02/19 01:14:36;;;;;;;0.30;0.30;;;12.20;99.90;;;;;;5045288;28;20202;-55
2024/02/19 01:17:03;;;;;;;0.47;0.40;;;12.20;99.90;;;;;;5046858;28;20573;-55
2024/02/19 01:19:31;;;;;;;0.40;0.40;;;12.20;99.90;;;;;;5046113;28;20202;-55
2024/02/19 01:21:59;;;;;;;0.20;0.20;;;12.20;99.90;;;;;;5043000;28;20639;-55
2024/02/19 01:24:26;;;;;;;0.03;0.03;;;12.10;99.90;;;;;;5043790;28;20206;-55
2024/02/19 01:26:53;;;;;;;0.20;0.20;;;12.10;99.90;;;;;;5046708;28;20221;-55
2024/02/19 01:29:20;;;;;;;0.63;0.40;;;12.20;99.90;;;;;;5046505;28;20591;-55
2024/02/19 01:31:46;;;;;;;0.40;0.40;;;12.10;99.90;;;;;;5043013;28;20232;-55
2024/02/19 01:34:14;;;;;;;0.20;0.20;;;12.10;99.90;;;;;;5043239;28;20555;-56
2024/02/19 01:36:41;;;;;;;0.63;0.30;;;12.00;99.90;;;;;;5045494;28;20226;-55
2024/02/19 01:39:09;;;;;;;0.57;0.20;;;12.10;99.90;;;;;;5046916;28;20288;-55
2024/02/19 01:41:36;;;;;;;0.80;0.40;;;12.00;99.90;;;;;;5044407;28;20225;-55
2024/02/19 01:44:04;;;;;;;0.30;0.30;;;12.00;99.90;;;;;;5042916;28;20260;-56
2024/02/19 01:46:33;;;;;;;2.07;0.43;;;12.10;99.90;;;;;;5043715;28;20237;-55
2024/02/19 01:49:00;;;;;;;0.30;0.30;;;12.10;99.90;;;;;;5046443;28;20256;-55
2024/02/19 01:51:27;;;;;;;0.50;0.50;;;12.00;99.90;;;;;;5045711;28;20667;-56
2024/02/19 01:53:55;;;;;;;2.50;0.50;;;12.10;99.90;;;;;;5043324;28;20238;-56
2024/02/19 01:56:23;;;;;;;1.47;0.70;;;12.20;99.90;;;;;;5042578;28;20230;-55
2024/02/19 01:58:51;;;;;;;2.50;0.70;;;12.20;99.90;;;;;;5034491;28;20214;-55
2024/02/19 02:01:18;;;;;;;1.33;0.70;;;12.20;99.90;;;;;;5042371;28;20676;-55
2024/02/19 02:03:47;;;;;;;1.93;0.70;;;12.20;99.90;;;;;;5045690;28;20205;-55
2024/02/19 02:06:13;;;;;;;0.80;0.70;;;12.20;99.90;;;;;;5045928;28;20233;-54
2024/02/19 02:08:40;;;;;;;0.70;0.70;;;12.20;99.90;;;;;;5043798;28;20209;-55
2024/02/19 02:11:07;;;;;;;0.70;0.70;;;12.20;99.90;;;;;;5042157;28;20631;-55
2024/02/19 02:13:35;;;;;;;1.10;0.83;;;12.20;99.90;;;;;;5043155;28;20576;-55
2024/02/19 02:16:02;;;;;;;2.13;0.80;;;12.10;99.90;;;;;;5045901;28;20707;-57
2024/02/19 02:18:30;;;;;;;0.90;0.90;;;12.10;99.90;;;;;;5045074;28;20300;-55
2024/02/19 02:20:56;;;;;;;1.17;0.80;;;12.20;99.90;;;;;;5042149;28;20293;-55
2024/02/19 02:23:25;;;;;;;2.77;0.90;;;12.20;99.90;;;;;;5042205;28;20230;-55
2024/02/19 02:25:51;;;;;;;0.90;0.90;;;12.10;99.90;;;;;;5034111;28;20227;-54
2024/02/19 02:28:19;;;;;;;1.50;1.07;;;12.20;99.90;;;;;;5042328;28;20585;-55
2024/02/19 02:30:46;;;;;;;1.10;1.00;;;12.10;99.90;;;;;;5044743;28;20512;-54
2024/02/19 02:33:13;;;;;;;1.73;1.20;;;12.00;99.90;;;;;;5045442;28;20202;-55
2024/02/19 02:35:39;;;;;;;1.20;1.10;;;11.90;99.90;;;;;;5043363;28;20236;-55
2024/02/19 02:38:06;;;;;;;1.10;1.00;;;12.00;99.90;;;;;;5042031;28;20198;-54
2024/02/19 02:40:32;;;;;;;1.20;1.10;;;12.00;99.90;;;;;;5042877;28;20305;-55
2024/02/19 02:42:59;;;;;;;2.07;1.30;;;12.00;99.90;;;;;;5045389;28;20237;-54
2024/02/19 02:45:27;;;;;;;2.53;1.30;;;12.10;99.90;;;;;;5045327;28;20271;-57
2024/02/19 02:47:54;;;;;;;1.40;1.30;;;12.10;99.90;;;;;;5041864;28;20217;-55
2024/02/19 02:50:20;;;;;;;1.60;1.40;;;12.00;99.90;;;;;;5041567;28;20241;-54
2024/02/19 02:52:47;;;;;;;1.43;1.33;;;12.00;99.90;;;;;;5044586;28;20205;-55
2024/02/19 02:55:14;;;;;;;1.50;1.40;;;12.00;99.90;;;;;;5045267;28;20297;-54
2024/02/19 02:57:41;;;;;;;2.13;1.40;;;11.90;99.90;;;;;;5043170;28;20484;-54
2024/02/19 03:00:09;;;;;;;1.67;1.30;;;11.90;99.90;;;;;;5041579;28;20210;-55
2024/02/19 03:02:37;;;;;;;1.40;1.30;;;11.90;99.90;;;;;;5042944;28;20320;-55
2024/02/19 03:05:04;;;;;;;1.57;1.30;;;11.90;99.90;;;;;;5045016;28;20206;-55
2024/02/19 03:07:31;;;;;;;2.00;1.80;;;11.80;99.90;;;;;;5044004;28;20640;-54
2024/02/19 03:09:57;;;;;;;1.90;1.73;;;11.70;99.90;;;;;;5041350;28;20209;-54
2024/02/19 03:12:24;;;;;;;1.53;1.43;;;11.80;99.90;;;;;;5041456;28;20260;-55
2024/02/19 03:14:51;;;;;;;1.90;1.70;;;11.70;99.90;;;;;;5044707;28;20247;-54
2024/02/19 03:17:17;;;;;;;1.50;1.40;;;11.80;99.90;;;;;;5044648;28;20221;-55
2024/02/19 03:19:46;;;;;;;1.67;1.57;;;11.80;99.90;;;;;;5041942;28;20206;-55
2024/02/19 03:22:13;;;;;;;1.50;1.40;;;11.80;99.90;;;;;;5040970;28;20260;-54
2024/02/19 03:24:40;;;;;;;3.60;1.40;;;11.90;99.90;;;;;;5041994;28;20602;-55
2024/02/19 03:27:06;;;;;;;1.70;1.50;;;11.90;99.90;;;;;;5044458;28;20260;-55
2024/02/19 03:29:33;;;;;;;2.40;1.63;;;12.00;99.90;;;;;;5043504;28;20210;-54
2024/02/19 03:32:00;;;;;;;2.47;1.50;;;11.90;99.90;;;;;;5040815;28;20210;-55
2024/02/19 03:34:26;;;;;;;1.97;1.47;;;11.90;99.90;;;;;;5041054;28;20217;-55
2024/02/19 03:36:54;;;;;;;3.73;1.83;;;11.80;99.90;;;;;;5032865;28;20229;-54
2024/02/19 03:39:21;;;;;;;1.63;1.43;;;11.80;99.90;;;;;;5041049;28;20214;-55
2024/02/19 03:41:49;;;;;;;3.37;1.57;;;11.70;99.90;;;;;;5043026;28;20595;-56
2024/02/19 03:44:16;;;;;;;1.83;1.57;;;11.70;99.90;;;;;;5044162;28;20255;-54
2024/02/19 03:46:43;;;;;;;2.23;1.67;;;11.80;99.90;;;;;;5041807;28;20407;-54
2024/02/19 03:49:11;;;;;;;4.27;1.97;;;11.80;99.90;;;;;;5040274;28;20214;-54
2024/02/19 03:51:37;;;;;;;4.33;2.07;;;11.80;99.90;;;;;;5041778;28;20302;-54
2024/02/19 03:54:06;;;;;;;1.80;1.53;;;11.80;99.90;;;;;;5044262;28;20210;-55
2024/02/19 03:56:32;;;;;;;2.63;1.80;;;11.90;99.90;;;;;;5067708;22;20268;-55
2024/02/19 03:58:59;;;;;;;2.37;1.87;;;11.90;99.90;;;;;;5052409;28;20206;-54
2024/02/19 04:01:25;;;;;;;1.90;1.70;;;11.90;99.90;;;;;;5052055;28;20213;-54
2024/02/19 04:03:52;;;;;;;1.97;1.60;;;12.00;99.90;;;;;;5052311;28;20225;-56
2024/02/19 04:06:19;;;;;;;2.30;1.70;;;12.10;99.90;;;;;;5045225;28;20230;-55
2024/02/19 04:08:45;;;;;;;2.83;2.13;;;12.10;99.90;;;;;;5042741;28;20210;-55
2024/02/19 04:11:16;;;;;;;2.20;2.00;;;12.20;99.90;;;;;;5043596;28;20433;-55
2024/02/19 04:13:42;;;;;;;2.73;1.83;;;12.20;99.90;;;;;;5041871;28;20631;-56
2024/02/19 04:16:09;;;;;;;2.60;2.07;;;12.20;99.90;;;;;;5040173;28;20253;-55
2024/02/19 04:18:36;;;;;;;3.77;1.80;;;12.30;99.90;;;;;;5041373;28;20202;-55
2024/02/19 04:21:03;;;;;;;4.47;2.23;;;12.30;99.90;;;;;;5043570;28;20565;-55
2024/02/19 04:23:30;;;;;;;2.60;2.10;;;12.30;99.90;;;;;;5043423;28;20217;-54
2024/02/19 04:25:56;;;;;;;4.67;2.00;;;12.20;99.90;;;;;;5040202;28;20234;-56
2024/02/19 04:28:24;;;;;;;3.37;2.20;;;12.20;99.90;;;;;;5040200;28;20229;-54
2024/02/19 04:30:51;;;;;;;2.27;1.90;;;12.20;99.90;;;;;;5043016;28;20213;-54
2024/02/19 04:33:18;;;;;;;3.37;2.10;;;12.10;99.90;;;;;;5043716;28;20224;-54
2024/02/19 04:35:44;;;;;;;3.80;2.23;;;12.10;99.90;;;;;;5040892;28;20232;-54
2024/02/19 04:38:11;;;;;;;2.33;2.03;;;12.00;99.90;;;;;;5040182;28;20210;-54
2024/02/19 04:40:37;;;;;;;2.13;1.83;;;12.00;99.90;;;;;;5040810;28;20214;-56
2024/02/19 04:43:04;;;;;;;2.33;1.93;;;11.90;99.90;;;;;;5043220;28;20711;-55
2024/02/19 04:45:32;;;;;;;2.30;1.97;;;11.90;99.90;;;;;;5042716;28;20214;-56
2024/02/19 04:47:59;;;;;;;4.20;2.03;;;11.90;99.90;;;;;;5035966;28;20213;-55
2024/02/19 04:50:25;;;;;;;2.80;1.90;;;12.00;99.90;;;;;;5043247;28;20213;-54
2024/02/19 04:52:52;;;;;;;2.60;1.90;;;12.00;99.90;;;;;;5039975;28;20726;-54
2024/02/19 04:55:19;;;;;;;3.40;2.07;;;12.20;99.90;;;;;;5039872;28;20206;-55
2024/02/19 04:57:45;;;;;;;2.97;2.00;;;12.10;99.90;;;;;;5041955;28;20317;-55
2024/02/19 05:00:13;;;;;;;2.70;2.10;;;12.10;99.90;;;;;;5042962;28;20671;-57
2024/02/19 05:02:41;;;;;;;2.57;2.03;;;12.10;99.90;;;;;;5042051;28;20694;-54
2024/02/19 05:05:09;;;;;;;2.63;2.37;;;12.20;99.90;;;;;;5039823;28;20202;-55
2024/02/19 05:07:36;;;;;;;2.80;2.03;;;12.20;99.90;;;;;;5041257;28;20253;-55
2024/02/19 05:10:04;;;;;;;2.60;2.10;;;12.20;99.90;;;;;;5042885;28;20729;-55
2024/02/19 05:12:32;;;;;;;2.10;1.90;;;12.20;99.90;;;;;;5042839;28;20208;-55
2024/02/19 05:14:59;;;;;;;5.90;2.60;;;12.20;99.90;;;;;;5039970;28;20720;-54
2024/02/19 05:17:25;;;;;;;2.37;2.17;;;12.10;99.90;;;;;;5039965;28;20229;-54
2024/02/19 05:19:53;;;;;;;3.03;2.10;;;12.00;99.90;;;;;;5042746;28;20206;-55
2024/02/19 05:22:20;;;;;;;3.33;2.13;;;12.00;99.90;;;;;;5043075;28;20619;-56
2024/02/19 05:24:47;;;;;;;2.67;2.03;;;12.10;99.90;;;;;;5040720;28;20339;-55
2024/02/19 05:27:14;;;;;;;3.57;2.20;;;12.10;99.90;;;;;;5039865;28;20704;-54
2024/02/19 05:29:40;;;;;;;5.37;2.23;;;12.20;99.90;;;;;;5041322;28;20209;-56
2024/02/19 05:32:07;;;;;;;4.13;2.87;;;12.20;99.90;;;;;;5042974;28;20293;-55
2024/02/19 05:34:34;;;;;;;3.03;2.17;;;12.30;99.90;;;;;;5042639;28;20870;-55
2024/02/19 05:37:02;;;;;;;3.40;2.30;;;12.20;99.90;;;;;;5039477;28;20222;-56
2024/02/19 05:39:28;;;;;;;3.97;2.20;;;12.20;99.90;;;;;;5039550;28;20202;-56
2024/02/19 05:41:55;;;;;;;3.73;2.37;;;12.20;99.90;;;;;;5042676;28;20208;-57
2024/02/19 05:44:21;;;;;;;2.97;2.40;;;12.20;99.90;;;;;;5042769;28;20218;-55
2024/02/19 05:46:48;;;;;;;3.43;2.30;;;12.10;99.90;;;;;;5040196;28;20279;-55
2024/02/19 05:49:15;;;;;;;2.93;2.30;;;12.10;99.90;;;;;;5042177;28;20206;-55
2024/02/19 05:51:42;;;;;;;4.73;2.57;;;12.00;99.90;;;;;;5044263;28;20213;-55
2024/02/19 05:54:10;;;;;;;3.07;2.50;;;12.00;99.90;;;;;;5046414;28;20255;-55
2024/02/19 05:56:36;;;;;;;5.70;3.23;;;12.10;99.90;;;;;;5045356;28;20233;-56
2024/02/19 05:59:03;;;;;;;4.10;2.50;;;12.10;99.90;;;;;;5042865;28;20202;-56
2024/02/19 06:01:30;;;;;;;7.63;3.30;;;12.10;99.90;;;;;;5042547;28;20210;-56
2024/02/19 06:03:56;;;;;;;4.53;3.53;;;12.00;99.90;;;;;;5034508;28;20309;-57
2024/02/19 06:06:23;;;;;;;4.27;2.60;;;11.90;99.90;;;;;;5042481;28;20715;-55
2024/02/19 06:08:50;;;;;;;4.17;2.57;;;11.70;99.90;;;;;;5050673;28;20212;-55
2024/02/19 06:11:20;;;;;;;5.70;3.70;;;11.70;99.90;;;;;;5042487;28;20210;-56
2024/02/19 06:13:47;;;;;;;5.37;2.70;;;11.70;99.90;;;;;;5044383;28;20660;-55
2024/02/19 06:16:14;;;;;;;3.13;2.10;;;11.60;99.90;;;;;;5045875;28;20226;-55
2024/02/19 06:18:41;;;;;;;4.83;2.63;;;11.70;99.90;;;;;;5044489;28;20202;-56
2024/02/19 06:21:07;;;;;;;2.90;2.00;;;11.60;99.90;;;;;;5041940;28;20210;-55
2024/02/19 06:23:34;;;;;;;4.30;2.73;;;11.70;99.90;;;;;;5042696;28;20219;-55
2024/02/19 06:26:01;;;;;;;3.60;2.10;;;11.60;99.90;;;;;;5045877;28;20226;-55
2024/02/19 06:28:29;;;;;;;4.20;2.10;;;11.70;99.90;;;;;;5045670;28;20205;-54
2024/02/19 06:30:56;;;;;;;4.00;2.23;;;11.70;99.90;;;;;;5042537;28;20297;-55
2024/02/19 06:33:22;;;;;;;2.57;2.00;;;11.70;99.90;;;;;;5042131;28;20202;-54
2024/02/19 06:35:49;;;;;;;4.10;2.13;;;11.80;99.90;;;;;;5044085;28;20222;-56
2024/02/19 06:38:16;;;;;;;4.17;2.03;;;11.80;99.90;;;;;;5045743;28;20205;-55
2024/02/19 06:40:42;;;;;;;3.47;1.83;;;11.80;99.90;;;;;;5043726;28;20259;-55
2024/02/19 06:43:09;;;;;;;4.07;1.83;;;11.70;99.90;;;;;;5042015;28;20245;-55
2024/02/19 06:45:37;;;;;;;2.93;2.13;;;11.70;99.90;;;;;;5042131;28;20210;-55
2024/02/19 06:48:05;;;;;;;3.30;1.80;;;11.60;99.90;;;;;;5045303;28;20717;-56
2024/02/19 06:50:33;;;;;;;5.20;1.97;;;11.70;99.90;;;;;;5044995;28;21338;-56
2024/02/19 06:52:59;;;;;;;3.30;1.83;;;11.70;99.90;;;;;;5042261;28;20266;-57
2024/02/19 06:55:26;;;;;;;4.87;2.07;;;11.70;99.90;;;;;;5041921;28;20234;-55
2024/02/19 06:57:53;;;;;;;5.30;2.73;;;11.70;99.90;;;;;;5044064;28;20623;-57
2024/02/19 07:00:21;;;;;;;4.70;2.70;;;11.70;99.90;;;;;;5044584;28;20208;-56
2024/02/19 07:02:49;;;;;;;2.90;1.97;;;11.70;99.90;;;;;;5042756;28;20692;-54
2024/02/19 07:05:16;;;;;;;4.20;1.60;;;11.70;99.90;;;;;;5041873;28;20276;-53
2024/02/19 07:07:42;;;;;;;3.30;1.73;;;11.70;99.90;;;;;;5042479;28;20264;-54
2024/02/19 07:10:09;;;;;;;7.87;3.67;;;11.80;99.90;;;;;;5044994;28;20267;-55
2024/02/19 07:12:36;;;;;;;7.07;3.63;;;11.80;99.90;;;;;;5044434;28;20198;-55
2024/02/19 07:15:03;;;;;;;1.70;1.03;;;11.90;99.90;;;;;;5041384;28;20210;-55
2024/02/19 07:17:30;;;;;;;4.47;2.00;;;12.00;99.90;;;;;;5041315;28;20222;-56
2024/02/19 07:19:59;;;;;;;4.40;2.37;;;11.90;99.90;;;;;;5044306;28;20301;-56
2024/02/19 07:22:25;;;;;;;4.47;1.80;;;12.00;99.90;;;;;;5044747;28;20225;-56
2024/02/19 07:24:52;;;;;;;4.73;1.90;;;12.10;99.90;;;;;;5042158;28;20279;-55
2024/02/19 07:27:19;;;;;;;2.50;1.40;;;12.00;99.90;;;;;;5047225;28;20230;-56
2024/02/19 07:29:46;;;;;;;2.73;1.83;;;12.00;99.90;;;;;;5042368;28;20209;-54
2024/02/19 07:32:12;;;;;;;1.90;1.50;;;12.20;99.90;;;;;;5040948;28;20206;-55
2024/02/19 07:34:39;;;;;;;2.83;1.57;;;12.20;99.90;;;;;;5041737;28;20202;-55
2024/02/19 07:37:07;;;;;;;1.93;1.43;;;12.30;99.90;;;;;;5044633;28;20224;-55
2024/02/19 07:39:33;;;;;;;2.70;1.20;;;12.40;99.90;;;;;;5044453;28;20252;-56
2024/02/19 07:42:00;;;;;;;2.50;1.47;;;12.40;99.90;;;;;;5032493;28;20202;-56
2024/02/19 07:44:27;;;;;;;3.70;1.80;;;12.50;99.90;;;;;;5040558;28;20222;-54
2024/02/19 07:46:54;;;;;;;4.20;1.77;;;12.50;99.90;;;;;;5043260;28;20229;-55
2024/02/19 07:49:20;;;;;;;3.50;1.43;;;12.50;99.90;;;;;;5044100;28;20231;-55
2024/02/19 07:51:47;;;;;;;2.50;1.50;;;12.60;99.90;;;;;;5041885;28;20263;-56
2024/02/19 07:54:15;;;;;;;3.97;2.10;;;12.60;99.90;;;;;;5040934;28;20252;-55
2024/02/19 07:56:41;;;;;;;3.27;1.40;;;12.70;99.90;;;;;;5041866;28;20226;-56
2024/02/19 07:59:08;;;;;;;2.13;0.97;;;12.60;99.90;;;;;;5043913;28;20205;-55
2024/02/19 08:01:36;;;;;;;3.13;1.50;;;12.60;99.90;;;;;;5043459;28;20621;-56
2024/02/19 08:04:02;;;;;;;2.60;1.50;;;12.60;99.90;;;;;;5040368;28;20572;-54
2024/02/19 08:06:29;;;;;;;5.23;1.60;;;12.60;99.90;;;;;;5040619;28;20222;-55
2024/02/19 08:08:56;;;;;;;2.53;1.13;;;12.60;99.90;;;;;;5043017;28;20656;-54
2024/02/19 08:11:24;;;;;;;3.47;1.30;;;12.50;99.90;;;;;;5043095;28;20206;-55
2024/02/19 08:13:50;;;;;;;3.63;1.33;;;12.50;99.90;;;;;;5041808;28;20752;-55
2024/02/19 08:16:17;;;;;;;2.53;1.20;;;12.50;99.90;;;;;;5040391;28;20785;-54
2024/02/19 08:18:44;;;;;;;3.40;1.50;;;12.50;99.90;;;;;;5041483;28;20699;-54
2024/02/19 08:21:11;;;;;;;3.53;1.27;;;12.60;99.90;;;;;;5043335;28;20744;-54
2024/02/19 08:23:37;;;;;;;1.77;1.07;;;12.60;99.90;;;;;;5043095;28;20222;-55
2024/02/19 08:26:04;;;;;;;4.50;2.50;;;12.60;99.90;;;;;;5040073;28;20226;-54
2024/02/19 08:28:32;;;;;;;5.57;2.80;;;12.60;99.90;;;;;;5040583;28;20198;-62
2024/02/19 08:31:00;;;;;;;5.80;1.70;;;12.60;99.90;;;;;;5037868;28;20297;-55
2024/02/19 08:33:27;;;;;;;3.00;1.47;;;12.70;99.90;;;;;;5040054;28;20650;-56
2024/02/19 08:35:54;;;;;;;3.40;1.60;;;12.70;99.90;;;;;;5042293;28;20260;-58
2024/02/19 08:38:21;;;;;;;5.17;1.73;;;12.60;99.90;;;;;;5043502;28;20689;-56
2024/02/19 08:40:47;;;;;;;6.87;1.40;;;12.50;99.90;;;;;;5040905;28;20817;-57
2024/02/19 08:43:14;;;;;;;4.37;1.30;;;12.50;99.90;;;;;;5040176;28;20206;-57
2024/02/19 08:45:42;;;;;;;2.30;1.00;;;12.50;99.90;;;;;;5040364;28;20730;-56
2024/02/19 08:48:09;;;;;;;3.80;1.10;;;12.50;99.90;;;;;;5043381;28;20228;-55
2024/02/19 08:50:36;;;;;;;4.10;1.43;;;12.40;99.90;;;;;;5043252;28;20206;-58
2024/02/19 08:53:03;;;;;;;3.77;1.40;;;12.30;99.90;;;;;;5031612;28;20252;-57
2024/02/19 08:55:31;;;;;;;4.40;1.40;;;12.40;99.90;;;;;;5039562;28;20609;-56
2024/02/19 08:57:58;;;;;;;4.20;1.10;;;12.40;99.90;;;;;;5042960;28;20255;-56
2024/02/19 09:00:25;;;;;;;3.97;1.17;;;12.40;99.90;;;;;;5043031;28;20276;-56
2024/02/19 09:02:53;;;;;;;4.07;1.50;;;12.50;99.90;;;;;;5041101;28;20201;-56
2024/02/19 09:05:20;;;;;;;3.30;1.17;;;12.50;99.90;;;;;;5039223;28;20222;-55
2024/02/19 09:07:47;;;;;;;2.90;1.23;;;12.50;99.90;;;;;;5040862;28;20276;-56
2024/02/19 09:10:14;;;;;;;2.70;1.10;;;12.40;99.90;;;;;;5043195;28;20288;-55
2024/02/19 09:12:41;;;;;;;2.77;1.00;;;12.40;99.90;;;;;;5042834;28;20680;-56
2024/02/19 09:15:08;;;;;;;4.03;1.00;;;12.30;99.90;;;;;;5040210;28;20210;-56
2024/02/19 09:17:35;;;;;;;3.03;1.47;;;12.40;99.90;;;;;;5039610;28;20233;-56
2024/02/19 09:20:06;;;;;;;3.43;1.13;;;12.50;99.90;;;;;;5042655;28;20229;-55
2024/02/19 09:22:33;;;;;;;2.03;1.20;;;12.50;99.90;;;;;;5044770;28;20229;-56
2024/02/19 09:25:00;;;;;;;3.13;1.00;;;12.60;99.90;;;;;;5043627;28;20761;-56
2024/02/19 09:27:26;;;;;;;2.47;1.20;;;12.70;99.90;;;;;;5043492;28;20226;-56
2024/02/19 09:29:53;;;;;;;5.20;1.20;;;12.90;99.90;;;;;;5044973;28;20248;-57
2024/02/19 09:32:20;;;;;;;3.33;0.83;;;12.90;99.90;;;;;;5046927;28;20226;-57
2024/02/19 09:34:46;;;;;;;3.23;1.40;;;12.80;99.90;;;;;;5045618;28;20432;-55
2024/02/19 09:37:14;;;;;;;2.83;1.10;;;12.70;99.90;;;;;;5043279;28;20222;-56
2024/02/19 09:39:41;;;;;;;2.03;1.07;;;12.70;99.90;;;;;;5043512;28;20626;-56
2024/02/19 09:42:09;;;;;;;2.67;1.00;;;12.80;99.90;;;;;;5045946;28;20201;-55
2024/02/19 09:44:35;;;;;;;4.90;1.43;;;12.80;99.90;;;;;;5046351;28;20302;-67
2024/02/19 09:47:03;;;;;;;4.10;1.57;;;12.90;99.90;;;;;;5042937;28;20226;-59
2024/02/19 09:49:31;;;;;;;1.87;0.93;;;13.00;99.90;;;;;;5042808;28;20209;-63
2024/02/19 09:52:01;;;;;;;5.20;1.40;;;13.20;99.90;;;;;;5045424;28;20227;-61
2024/02/19 09:54:30;;;;;;;3.27;1.20;;;13.30;99.90;;;;;;5046184;28;20232;-60
2024/02/19 09:56:57;;;;;;;3.47;1.07;;;13.30;99.90;;;;;;5062607;22;20785;-59
2024/02/19 09:59:24;;;;;;;4.33;1.20;;;13.50;99.90;;;;;;5045982;28;20212;-59
2024/02/19 10:01:51;;;;;;;3.97;1.40;;;13.70;99.90;;;;;;5043772;28;20670;-59
2024/02/19 10:04:18;;;;;;;2.07;1.07;;;13.90;99.90;;;;;;5034415;28;20222;-59
2024/02/19 10:06:45;;;;;;;4.43;1.00;;;14.20;99.90;;;;;;5042908;28;20226;-58
2024/02/19 10:09:12;;;;;;;3.83;1.30;;;14.50;99.90;;;;;;5045737;28;20201;-57
2024/02/19 10:11:40;;;;;;;4.70;1.10;;;14.80;99.90;;;;;;5045501;28;20231;-57
2024/02/19 10:14:09;;;;;;;6.43;1.57;;;14.90;99.90;;;;;;5034537;28;20213;-57
2024/02/19 10:16:36;;;;;;;3.23;1.30;;;15.10;99.90;;;;;;5033958;28;20228;-58
2024/02/19 10:19:06;;;;;;;3.83;1.40;;;15.30;99.90;;;;;;5045157;28;20209;-58
2024/02/19 10:21:32;;;;;;;4.73;1.30;;;15.30;99.90;;;;;;5045515;28;20256;-58
2024/02/19 10:23:59;;;;;;;3.60;1.30;;;15.20;99.90;;;;;;5042778;28;22362;-58
2024/02/19 10:26:26;;;;;;;2.90;1.40;;;15.30;99.90;;;;;;5034119;28;20233;-58
2024/02/19 10:28:57;;;;;;;3.10;1.13;;;15.20;99.90;;;;;;5043412;28;20202;-58
2024/02/19 10:31:24;;;;;;;3.13;1.23;;;15.00;99.90;;;;;;5044913;28;20205;-58
2024/02/19 10:33:51;;;;;;;4.33;1.20;;;14.80;99.90;;;;;;5043964;28;20619;-58
2024/02/19 10:36:21;;;;;;;4.50;2.00;;;14.60;99.90;;;;;;5033618;28;20222;-57
2024/02/19 10:38:48;;;;;;;4.63;1.77;;;14.60;99.90;;;;;;5033380;28;20203;-58
2024/02/19 10:41:16;;;;;;;3.30;1.10;;;14.40;99.90;;;;;;5041544;28;20213;-58
2024/02/19 10:43:43;;;;;;;6.50;1.27;;;14.20;99.90;;;;;;5032699;28;20672;-58
2024/02/19 10:46:13;;;;;;;7.43;1.53;;;14.00;99.90;;;;;;5041800;28;20225;-57
2024/02/19 10:48:40;;;;;;;5.23;1.97;;;13.90;99.90;;;;;;5033525;28;20647;-65
2024/02/19 10:51:07;;;;;;;4.27;2.17;;;13.70;99.90;;;;;;5033813;28;20211;-61
2024/02/19 10:53:34;;;;;;;5.15;2.35;;;13.50;99.90;;;;;;5032574;28;20440;-64
2024/02/19 10:56:10;;;;;;;7.50;1.60;;;13.50;99.90;;;;;;5043636;28;20205;-61
2024/02/19 10:58:37;;;;;;;5.63;1.57;;;13.40;99.90;;;;;;5044885;28;20284;-61
2024/02/19 11:01:06;;;;;;;4.90;1.20;;;13.50;99.90;;;;;;5041428;28;20206;-60
2024/02/19 11:03:44;;;;;;;4.70;1.17;;;13.30;99.90;;;;;;5033550;28;20206;-60
2024/02/19 11:06:12;;;;;;;5.40;1.50;;;13.00;99.90;;;;;;5033869;28;20226;-62
2024/02/19 11:08:40;;;;;;;4.60;1.23;;;12.90;99.90;;;;;;5040956;28;20202;-61
2024/02/19 11:11:07;;;;;;;3.50;1.10;;;12.70;99.90;;;;;;5032857;28;20202;-62
2024/02/19 11:13:37;;;;;;;5.50;1.07;;;12.50;99.90;;;;;;5033559;28;20617;-61
2024/02/19 11:16:14;;;;;;;4.20;1.67;;;12.50;99.90;;;;;;5044807;28;20243;-61
2024/02/19 11:18:42;;;;;;;8.73;1.83;;;12.70;99.90;;;;;;5044928;28;20205;-62
2024/02/19 11:21:10;;;;;;;3.87;1.50;;;12.80;99.90;;;;;;5032939;28;20264;-61
2024/02/19 11:23:37;;;;;;;4.63;1.60;;;13.20;99.90;;;;;;5041768;28;20205;-61
2024/02/19 11:26:04;;;;;;;5.37;1.50;;;13.70;99.90;;;;;;5032810;28;20219;-59
2024/02/19 11:28:32;;;;;;;3.83;1.67;;;13.90;99.90;;;;;;5041561;28;20445;-60
2024/02/19 11:31:01;;;;;;;5.93;1.70;;;14.20;99.90;;;;;;5032260;28;20209;-62
2024/02/19 11:33:27;;;;;;;6.20;1.37;;;14.50;99.90;;;;;;5041206;28;20237;-61
2024/02/19 11:35:57;;;;;;;6.07;1.37;;;14.70;99.90;;;;;;5032483;28;20252;-60
2024/02/19 11:38:25;;;;;;;5.53;1.33;;;14.90;99.90;;;;;;5041043;28;20294;-60
2024/02/19 11:40:52;;;;;;;3.87;1.10;;;15.00;99.90;;;;;;5032268;28;20206;-60
2024/02/19 11:43:20;;;;;;;4.67;1.20;;;15.10;99.90;;;;;;5040018;28;20292;-61
2024/02/19 11:45:47;;;;;;;3.83;1.10;;;15.30;99.90;;;;;;5031254;28;20306;-61
2024/02/19 11:48:14;;;;;;;3.83;0.83;;;15.60;99.90;;;;;;5040226;28;20698;-59
2024/02/19 11:50:44;;;;;;;4.03;1.05;;;15.50;99.90;;;;;;5032196;28;20580;-62
2024/02/19 11:53:12;;;;;;;2.10;0.80;;;15.60;99.90;;;;;;5032940;28;20202;-62
2024/02/19 11:55:39;;;;;;;3.22;1.20;;;15.60;99.90;;;;;;5032227;28;20590;-64
2024/02/19 11:58:09;;;;;;;3.88;1.42;;;15.70;99.90;;;;;;5043678;28;20229;-61
2024/02/19 12:00:36;;;;;;;4.28;2.00;;;15.80;99.90;;;;;;5043603;28;20206;-61
2024/02/19 12:03:03;;;;;;;4.07;1.90;;;15.70;99.90;;;;;;5041083;28;20297;-62
2024/02/19 12:05:30;;;;;;;5.87;1.30;;;15.70;99.90;;;;;;5040351;28;20226;-61
2024/02/19 12:07:57;;;;;;;3.80;1.23;;;15.50;99.90;;;;;;5032048;28;20353;-63
2024/02/19 12:10:26;;;;;;;4.80;1.25;;;15.40;99.90;;;;;;5040029;28;20198;-63
2024/02/19 12:12:55;;;;;;;3.93;1.60;;;15.40;99.90;;;;;;5031955;28;20229;-65
2024/02/19 12:15:22;;;;;;;2.13;0.93;;;15.30;99.90;;;;;;5039976;28;20206;-62
2024/02/19 12:17:49;;;;;;;3.08;1.10;;;15.20;99.90;;;;;;5040917;28;20226;-61
2024/02/19 12:20:17;;;;;;;2.85;1.02;;;15.20;99.90;;;;;;5042931;28;20209;-61
2024/02/19 12:22:43;;;;;;;5.80;1.20;;;15.20;99.90;;;;;;5043155;28;20198;-62
2024/02/19 12:25:12;;;;;;;2.43;0.93;;;15.20;99.90;;;;;;5031689;28;20268;-61
2024/02/19 12:27:40;;;;;;;5.50;1.40;;;15.20;99.90;;;;;;5039654;28;20256;-62
2024/02/19 12:30:07;;;;;;;1.77;0.53;;;15.30;99.90;;;;;;5031043;28;20297;-62
2024/02/19 12:32:35;;;;;;;3.53;1.20;;;15.40;99.90;;;;;;5039647;28;20210;-62
2024/02/19 12:35:03;;;;;;;3.10;1.33;;;15.50;99.90;;;;;;5031338;28;20210;-61
2024/02/19 12:37:30;;;;;;;3.03;1.02;;;15.50;99.90;;;;;;5031564;28;20225;-61
2024/02/19 12:39:56;;;;;;;5.80;1.07;;;15.50;99.90;;;;;;5041180;28;20727;-62
2024/02/19 12:42:23;;;;;;;2.72;0.80;;;15.60;99.90;;;;;;5043108;28;20674;-61
2024/02/19 12:44:51;;;;;;;5.53;0.90;;;15.70;99.90;;;;;;5042094;28;20286;-61
2024/02/19 12:47:18;;;;;;;3.17;1.10;;;15.70;99.90;;;;;;5031534;28;20225;-60